createdAt,value
2018-08-11T00:05:19.017Z,52.70
2018-08-11T00:30:17.202Z,52.70
2018-08-11T00:35:16.458Z,52.70
2018-08-11T00:40:18.146Z,52.70
2018-08-11T00:47:47.723Z,52.80
2018-08-11T00:55:20.427Z,52.80
2018-08-11T01:00:19.909Z,52.70
2018-08-11T01:02:49.479Z,52.70
2018-08-11T01:05:20.343Z,52.80
2018-08-11T01:12:49.776Z,52.80
2018-08-11T01:15:23.105Z,52.80
2018-08-11T01:20:22.148Z,52.80
2018-08-11T01:22:51.686Z,52.80
2018-08-11T01:27:50.358Z,52.80
2018-08-11T01:30:21.027Z,52.70
2018-08-11T01:32:50.629Z,52.80
2018-08-11T01:37:49.273Z,52.70
2018-08-11T01:42:48.774Z,52.70
2018-08-11T02:02:51.761Z,52.70
2018-08-11T02:07:50.407Z,52.70
2018-08-11T02:12:50.363Z,52.70
2018-08-11T02:17:49.037Z,52.70
2018-08-11T02:22:49.540Z,52.70
2018-08-11T02:25:19.088Z,52.70
2018-08-11T02:35:16.600Z,52.70
2018-08-11T02:37:46.140Z,52.80
2018-08-11T02:45:16.941Z,52.80
2018-08-11T02:47:47.461Z,52.80
2018-08-11T02:50:17.019Z,52.80
2018-08-11T02:57:45.594Z,52.80
2018-08-11T03:05:13.751Z,52.80
2018-08-11T03:07:44.672Z,52.80
2018-08-11T03:12:43.311Z,52.90
2018-08-11T03:15:13.116Z,52.90
2018-08-11T03:17:42.677Z,53.00
2018-08-11T03:20:14.210Z,53.00
2018-08-11T03:27:42.819Z,53.00
2018-08-11T03:30:12.354Z,53.00
2018-08-11T03:35:10.981Z,53.00
2018-08-11T03:37:40.563Z,53.00
2018-08-11T03:47:40.073Z,53.10
2018-08-11T03:50:09.619Z,53.10
2018-08-11T03:55:08.266Z,53.10
2018-08-11T03:57:37.833Z,53.20
2018-08-11T04:00:09.270Z,53.10
2018-08-11T04:02:38.815Z,53.20
2018-08-11T04:05:08.355Z,53.20
2018-08-11T04:10:07.729Z,53.20
2018-08-11T04:17:40.757Z,53.30
2018-08-11T04:22:40.367Z,53.20
2018-08-11T04:25:10.472Z,53.30
2018-08-11T04:27:40.020Z,53.40
2018-08-11T04:30:11.229Z,53.40
2018-08-11T04:32:41.131Z,53.40
2018-08-11T04:35:10.671Z,53.50
2018-08-11T04:40:09.318Z,53.50
2018-08-11T04:42:39.049Z,53.50
2018-08-11T04:47:38.865Z,53.50
2018-08-11T04:50:08.711Z,53.60
2018-08-11T04:52:39.308Z,53.60
2018-08-11T04:55:08.874Z,53.60
2018-08-11T04:57:38.759Z,53.70
2018-08-11T05:05:08.489Z,53.80
2018-08-11T05:07:38.953Z,53.80
2018-08-11T05:17:39.113Z,53.70
2018-08-11T05:20:10.206Z,53.80
2018-08-11T05:25:09.551Z,53.80
2018-08-11T05:30:09.492Z,53.80
2018-08-11T05:37:38.545Z,54.10
2018-08-11T05:40:08.082Z,54.10
2018-08-11T05:47:35.819Z,54.10
2018-08-11T05:52:34.516Z,54.10
2018-08-11T05:55:04.655Z,54.10
2018-08-11T06:00:03.275Z,54.10
2018-08-11T06:02:32.812Z,54.10
2018-08-11T06:07:31.455Z,54.10
2018-08-11T06:12:30.125Z,54.30
2018-08-11T06:19:57.933Z,54.60
2018-08-11T06:27:26.228Z,54.70
2018-08-11T06:32:25.081Z,54.80
2018-08-11T06:34:54.646Z,54.80
2018-08-11T06:39:53.311Z,55.30
2018-08-11T06:42:22.872Z,55.30
2018-08-11T06:52:19.752Z,55.10
2018-08-11T06:59:47.963Z,55.00
2018-08-11T07:04:46.709Z,54.90
2018-08-11T07:07:16.303Z,54.80
2018-08-11T07:19:42.256Z,54.70
2018-08-11T07:27:11.147Z,54.30
2018-08-11T07:32:10.607Z,52.70
2018-08-11T07:37:09.290Z,52.40
2018-08-11T07:42:07.996Z,52.40
2018-08-11T07:44:37.570Z,52.10
2018-08-11T07:49:36.438Z,52.40
2018-08-11T07:52:06.341Z,52.50
2018-08-11T07:57:04.973Z,53.20
2018-08-11T07:59:34.528Z,54.00
2018-08-11T08:04:33.167Z,52.70
2018-08-11T08:07:02.727Z,53.20
2018-08-11T08:12:01.364Z,52.90
2018-08-11T08:14:30.917Z,52.40
2018-08-11T08:26:57.775Z,52.40
2018-08-11T08:29:27.643Z,52.70
2018-08-11T08:34:26.356Z,52.40
2018-08-11T08:39:25.027Z,52.80
2018-08-11T08:41:54.665Z,52.40
2018-08-11T08:44:24.188Z,51.80
2018-08-11T08:46:53.762Z,51.50
2018-08-11T08:51:52.599Z,51.40
2018-08-11T08:59:20.431Z,50.90
2018-08-11T09:04:19.089Z,50.60
2018-08-11T09:11:47.005Z,50.00
2018-08-11T09:16:46.093Z,51.00
2018-08-11T09:19:15.615Z,50.70
2018-08-11T09:24:14.896Z,50.50
2018-08-11T09:29:15.096Z,49.90
2018-08-11T09:36:44.326Z,49.70
2018-08-11T09:41:42.988Z,49.80
2018-08-11T09:44:12.544Z,49.80
2018-08-11T09:49:11.219Z,50.20
2018-08-11T10:06:45.935Z,50.40
2018-08-11T10:11:46.093Z,50.30
2018-08-11T10:16:46.199Z,46.90
2018-08-11T10:21:46.344Z,47.60
2018-08-11T10:24:16.477Z,48.90
2018-08-11T10:26:46.971Z,49.30
2018-08-11T10:29:16.878Z,49.00
2018-08-11T10:34:16.650Z,48.60
2018-08-11T10:41:45.763Z,48.50
2018-08-11T10:46:44.387Z,48.50
2018-08-11T10:51:43.052Z,48.50
2018-08-11T10:54:12.583Z,48.60
2018-08-11T10:59:11.240Z,48.50
2018-08-11T11:01:40.792Z,48.70
2018-08-11T11:11:38.264Z,48.80
2018-08-11T11:24:06.131Z,49.30
2018-08-11T11:34:03.192Z,50.80
2018-08-11T11:36:32.741Z,51.70
2018-08-11T11:41:31.377Z,52.70
2018-08-11T11:44:01.277Z,53.30
2018-08-11T11:48:59.901Z,53.70
2018-08-11T11:53:58.569Z,54.40
2018-08-11T12:06:24.983Z,53.90
2018-08-11T12:11:23.643Z,53.50
2018-08-11T12:13:53.221Z,53.20
2018-08-11T12:18:51.889Z,52.80
2018-08-11T12:21:21.434Z,53.40
2018-08-11T12:26:20.076Z,53.30
2018-08-11T12:28:50.073Z,53.40
2018-08-11T12:31:19.726Z,53.10
2018-08-11T12:33:50.331Z,53.10
2018-08-11T12:38:48.974Z,52.70
2018-08-11T12:41:18.518Z,53.10
2018-08-11T12:48:46.863Z,53.00
2018-08-11T13:03:42.471Z,53.90
2018-08-11T13:11:10.279Z,54.90
2018-08-11T13:16:08.933Z,55.20
2018-08-11T13:18:38.485Z,55.20
2018-08-11T13:23:37.117Z,55.40
2018-08-11T13:31:05.299Z,55.50
2018-08-11T13:36:04.180Z,55.10
2018-08-11T13:38:33.733Z,55.60
2018-08-11T13:43:32.494Z,56.60
2018-08-11T13:46:02.056Z,57.10
2018-08-11T13:51:00.687Z,56.10
2018-08-11T13:53:30.332Z,55.60
2018-08-11T13:58:29.279Z,55.10
2018-08-11T14:00:58.809Z,54.90
2018-08-11T14:05:57.447Z,54.70
2018-08-11T14:13:25.272Z,54.50
2018-08-11T14:25:51.862Z,54.30
2018-08-11T14:28:21.403Z,54.30
2018-08-11T14:35:50.497Z,54.20
2018-08-11T14:43:20.688Z,54.10
2018-08-11T14:53:17.525Z,54.10
2018-08-11T14:55:47.087Z,54.00
2018-08-11T15:00:45.746Z,54.00
2018-08-11T15:33:05.907Z,54.90
2018-08-11T15:35:35.466Z,55.00
2018-08-11T15:40:34.433Z,55.20
2018-08-11T15:43:03.967Z,55.10
2018-08-11T15:48:02.601Z,55.30
2018-08-11T15:55:30.353Z,55.60
2018-08-11T15:57:59.882Z,55.60
2018-08-11T16:00:29.440Z,55.40
2018-08-11T16:02:59.014Z,55.50
2018-08-11T16:12:56.026Z,55.20
2018-08-11T16:22:54.873Z,55.00
2018-08-11T16:25:24.404Z,55.10
2018-08-11T16:32:54.224Z,54.90
2018-08-11T16:35:23.763Z,55.00
2018-08-11T16:37:53.796Z,54.90
2018-08-11T16:40:23.378Z,54.90
2018-08-11T16:47:51.176Z,55.00
2018-08-11T16:50:21.068Z,55.00
2018-08-11T16:52:50.659Z,54.90
2018-08-11T16:55:20.235Z,55.00
2018-08-11T17:10:15.456Z,54.90
2018-08-11T17:12:45.012Z,54.60
2018-08-11T17:17:43.641Z,54.60
2018-08-11T17:32:40.081Z,54.40
2018-08-11T17:47:36.823Z,54.50
2018-08-11T17:52:35.587Z,54.50
2018-08-11T17:57:34.239Z,54.50
2018-08-11T18:00:04.528Z,54.60
2018-08-11T18:07:32.684Z,54.60
2018-08-11T18:10:02.241Z,54.60
2018-08-11T18:12:31.774Z,54.70
2018-08-11T18:17:30.387Z,54.70
2018-08-11T18:22:30.786Z,54.60
2018-08-11T18:27:29.446Z,54.80
2018-08-11T18:32:28.100Z,54.80
2018-08-11T18:39:56.678Z,54.90
2018-08-11T18:47:24.407Z,55.00
2018-08-11T18:52:23.026Z,55.00
2018-08-11T18:54:52.571Z,55.00
2018-08-11T18:59:51.398Z,55.10
2018-08-11T19:02:20.899Z,55.10
2018-08-11T19:17:15.949Z,55.20
2018-08-11T19:19:45.540Z,55.20
2018-08-11T19:32:11.513Z,55.30
2018-08-11T19:34:41.052Z,55.20
2018-08-11T19:37:10.607Z,55.30
2018-08-11T19:52:06.407Z,55.30
2018-08-11T19:54:35.980Z,55.30
2018-08-11T19:57:05.645Z,55.40
2018-08-11T19:59:35.188Z,55.40
2018-08-11T20:02:04.860Z,55.50
2018-08-11T20:07:03.579Z,55.40
2018-08-11T20:09:33.480Z,55.40
2018-08-11T20:12:03.587Z,55.40
2018-08-11T20:14:33.149Z,55.40
2018-08-11T20:19:32.393Z,55.40
2018-08-11T20:27:00.297Z,55.40
2018-08-11T20:29:29.838Z,55.40
2018-08-11T20:31:59.987Z,55.50
2018-08-11T20:49:30.052Z,55.60
2018-08-11T21:11:58.560Z,55.60
2018-08-11T21:14:28.109Z,55.70
2018-08-11T21:19:26.892Z,55.70
2018-08-11T21:21:56.438Z,55.70
2018-08-11T21:26:55.075Z,55.70
2018-08-11T21:31:53.719Z,55.60
2018-08-11T21:34:23.268Z,55.70
2018-08-11T21:36:52.838Z,55.70
2018-08-11T21:41:51.479Z,55.70
2018-08-11T22:04:14.814Z,55.80
2018-08-11T22:06:44.353Z,55.90
2018-08-11T22:14:13.131Z,55.90
2018-08-11T22:19:11.784Z,56.00
2018-08-11T22:21:41.337Z,55.90
2018-08-11T22:31:38.221Z,55.90
2018-08-11T22:36:36.881Z,56.00
2018-08-11T22:51:33.629Z,56.10
2018-08-11T22:56:32.426Z,56.10
2018-08-11T22:59:01.979Z,56.10
2018-08-11T23:01:31.513Z,56.10
2018-08-11T23:06:31.369Z,56.10
2018-08-11T23:14:00.595Z,56.10
2018-08-11T23:18:59.260Z,56.10
2018-08-11T23:21:28.809Z,56.20
2018-08-11T23:26:27.439Z,56.20
2018-08-11T23:28:56.975Z,56.20
2018-08-11T23:38:54.303Z,56.20
2018-08-11T23:41:23.854Z,56.30
2018-08-11T23:46:22.537Z,56.30
2018-08-11T23:58:48.503Z,56.40
